North Liberty, IN (46554)

3:27 PM EDT on September 03, 2015 (GMT -0400)
New Rd Wind Generator | | Change Station
CLOSE
Current Station
Personal Weather Station
Location: North Liberty, IN
Elevation: 735 ft
Nearby Weather Stations

Elev 735 ft 41.56 °N, 86.43 °W | Updated 6 minutes ago

Partly Cloudy
Partly Cloudy
90.3 °F
Feels Like 101 °F
N
4.2
Wind Variable Wind from West

Today
High -- | Low -- °F
--% Chance of Precip.
Yesterday
High -- | Low -- °F
Precip. -- in
7:13 AM 8:15 PM
Waning Gibbous, 67% visible
Pressure 29.93 in
Visibility 10.0 miles
Clouds Few 9500 ft
Heat Index 101 °F
Dew Point 75 °F
Humidity 61%
Rainfall 0.00 in
Snow Depth Not available.
UV 8 out of 12
Pollen 10.10 out of 12
Air Quality Not available.
Flu Activity Not available.
METAR KSBN 031854Z 24012KT 10SM FEW095 31/20 A2994 RMK AO2 SLP133 T03060200
Pressure 29.93 in
Visibility 10.0 miles
Clouds Few 9500 ft
Heat Index 101 °F
Dew Point 75 °F
Humidity 61%
Rainfall 0.00 in
Snow Depth Not available.
UV 8 out of 12
Pollen 10.10 out of 12
Air Quality Not available.
Flu Activity Not available.
METAR KSBN 031854Z 24012KT 10SM FEW095 31/20 A2994 RMK AO2 SLP133 T03060200

10-Day Weather Forecast

×

Almanac

Astronomy

Sep. 03, 2015 Rise Set
Actual Time
Civil Twilight
Nautical Twilight
Astronomical Twilight
Moon
Length of Visible Light
Length of Day
Tomorrow will be .
, % of the Moon is Illuminated

Today's Extremes

State Highs State Lows

Community

WunderPhotos

Upload Photos

1,852,014 photos uploaded!

WunderBlogs® & News

Nearby

Air Quality

  Air Quality AQ Index Pollutant
Not available.

Snow Depth

Station Depth Elevation

Earthquake Activity

City Distance Mag. Time & Date
Minimum magnitude displayed is 2.5.

Coastal Water Temperatures

Place Temperature

Stations

Nearby Weather Stations

Station Location Temp. Windchill Dew Point Humidity Wind Precip. Elev Updated Type